Time;durP1;ratioP1;P1;durP2;ratioP2;P2;SDS_P1;SDS_P2;PMS_P1;PMS_P2;Temp;Humidity;BMP_temperature;BMP_pressure;BME280_temperature;BME280_humidity;BME280_pressure;Samples;Min_cycle;Max_cycle;Signal;HPM_P1;HPM_P2
2023/10/27 00:01:15;;;;;;;6.18;3.72;;;;;;;11.30;55.48;98865.63;5011071;28;20085;-76
2023/10/27 00:03:43;;;;;;;8.02;3.83;;;;;;;11.31;55.64;98859.06;4999514;28;20046;-76
2023/10/27 00:06:13;;;;;;;5.30;3.63;;;;;;;11.32;55.83;98867.09;4981780;28;20089;-76
2023/10/27 00:08:40;;;;;;;5.28;3.58;;;;;;;11.31;55.50;98868.16;4982760;28;20361;-74
2023/10/27 00:11:08;;;;;;;5.30;3.42;;;;;;;11.31;55.40;98859.94;4981769;28;20820;-76
2023/10/27 00:13:36;;;;;;;5.43;3.58;;;;;;;11.32;55.91;98872.59;4980137;28;20133;-76
2023/10/27 00:16:08;;;;;;;6.38;3.53;;;;;;;11.34;55.83;98872.41;4998285;28;20118;-75
2023/10/27 00:18:36;;;;;;;5.13;3.38;;;;;;;11.32;55.78;98869.84;4982782;28;20042;-76
2023/10/27 00:21:05;;;;;;;8.00;3.50;;;;;;;11.33;55.60;98863.34;4981742;28;20050;-76
2023/10/27 00:23:34;;;;;;;4.72;3.03;;;;;;;11.33;55.79;98866.06;5001106;28;20088;-76
2023/10/27 00:26:02;;;;;;;5.32;3.38;;;;;;;11.34;55.29;98858.72;4998405;28;20093;-76
2023/10/27 00:28:31;;;;;;;6.20;3.90;;;;;;;11.34;55.78;98854.09;4982403;28;20528;-76
2023/10/27 00:30:59;;;;;;;5.93;3.95;;;;;;;11.33;55.83;98849.66;5012290;28;20050;-76
2023/10/27 00:33:28;;;;;;;4.97;3.50;;;;;;;11.33;55.75;98857.84;4993588;28;20050;-75
2023/10/27 00:35:56;;;;;;;6.15;3.58;;;;;;;11.32;55.29;98847.09;4987884;28;20560;-76
2023/10/27 00:38:24;;;;;;;5.22;3.38;;;;;;;11.33;55.33;98843.31;4990837;28;20096;-77
2023/10/27 00:40:53;;;;;;;6.13;3.55;;;;;;;11.33;55.32;98843.31;4988655;28;20208;-77
2023/10/27 00:43:24;;;;;;;5.13;3.10;;;;;;;11.28;55.56;98841.16;4969358;28;20085;-77
2023/10/27 00:45:54;;;;;;;6.43;3.90;;;;;;;11.27;55.26;98842.19;4983933;28;20309;-75
2023/10/27 00:48:22;;;;;;;5.35;3.33;;;;;;;11.24;55.46;98841.69;4985010;28;20049;-76
2023/10/27 00:50:51;;;;;;;4.60;3.22;;;;;;;11.21;55.96;98845.69;4984086;28;20186;-76
2023/10/27 00:53:20;;;;;;;6.25;3.33;;;;;;;11.21;56.06;98842.09;4983407;28;20048;-76
2023/10/27 00:55:49;;;;;;;6.18;3.17;;;;;;;11.19;56.01;98847.75;4967674;28;20058;-75
2023/10/27 00:58:21;;;;;;;5.22;3.10;;;;;;;11.19;56.47;98847.75;4982479;28;20046;-75
2023/10/27 01:00:49;;;;;;;5.50;3.42;;;;;;;11.17;56.33;98848.97;4968864;28;20402;-75
2023/10/27 01:03:17;;;;;;;4.53;3.03;;;;;;;11.16;56.47;98850.84;4986378;28;20522;-76
2023/10/27 01:05:45;;;;;;;5.47;3.25;;;;;;;11.15;56.27;98851.88;4995367;28;20054;-76
2023/10/27 01:08:13;;;;;;;4.43;3.20;;;;;;;11.14;56.44;98852.09;4969518;28;20057;-76
2023/10/27 01:10:42;;;;;;;5.63;3.70;;;;;;;11.14;56.17;98855.66;4994018;28;20851;-75
2023/10/27 01:13:10;;;;;;;7.45;3.45;;;;;;;11.13;55.78;98853.13;4982694;28;20042;-76
2023/10/27 01:15:39;;;;;;;5.07;3.22;;;;;;;11.14;56.01;98852.91;4967406;28;20050;-75
2023/10/27 01:18:08;;;;;;;5.28;3.40;;;;;;;11.12;55.96;98851.44;4995720;28;20053;-75
2023/10/27 01:20:36;;;;;;;5.90;3.08;;;;;;;11.10;56.05;98846.13;4983611;28;20116;-76
2023/10/27 01:23:06;;;;;;;5.65;2.97;;;;;;;11.12;56.08;98846.81;4966867;28;20124;-76
2023/10/27 01:25:33;;;;;;;5.78;3.17;;;;;;;11.10;56.11;98848.03;4995598;28;20057;-76
2023/10/27 01:28:02;;;;;;;7.13;3.35;;;;;;;11.09;56.48;98852.63;4967398;28;20746;-75
2023/10/27 01:30:30;;;;;;;5.68;2.90;;;;;;;11.08;56.23;98845.47;4983726;28;20425;-75
2023/10/27 01:32:58;;;;;;;6.60;3.15;;;;;;;11.08;56.19;98845.47;4967870;28;20079;-75
2023/10/27 01:35:26;;;;;;;6.47;3.20;;;;;;;11.08;56.56;98840.00;4984729;28;20465;-75
2023/10/27 01:37:54;;;;;;;5.05;3.22;;;;;;;11.08;56.40;98836.41;4968677;28;20047;-75
2023/10/27 01:40:23;;;;;;;6.55;3.20;;;;;;;11.09;56.09;98841.69;4995661;28;20050;-74
2023/10/27 01:42:51;;;;;;;5.03;2.95;;;;;;;11.07;56.22;98838.28;4965956;28;20038;-75
2023/10/27 01:45:19;;;;;;;7.22;3.50;;;;;;;11.05;55.98;98834.91;4983905;28;20125;-76
2023/10/27 01:47:47;;;;;;;6.20;3.15;;;;;;;11.05;56.10;98834.91;4967914;28;20532;-76
2023/10/27 01:50:15;;;;;;;4.45;2.72;;;;;;;11.05;56.46;98834.91;4984950;28;20049;-76
2023/10/27 01:52:43;;;;;;;6.78;2.83;;;;;;;11.04;55.82;98832.34;4984220;28;21318;-75
2023/10/27 01:55:11;;;;;;;5.78;2.90;;;;;;;11.03;56.37;98841.59;4985351;28;20588;-73
2023/10/27 01:57:41;;;;;;;5.43;2.70;;;;;;;11.04;55.89;98835.94;4984113;28;21280;-75
2023/10/27 02:00:10;;;;;;;4.85;2.90;;;;;;;11.02;55.91;98831.69;5000004;28;20401;-75
2023/10/27 02:02:41;;;;;;;6.47;3.00;;;;;;;10.97;56.00;98827.63;4969144;28;20222;-75
2023/10/27 02:05:09;;;;;;;6.50;3.28;;;;;;;10.98;55.92;98826.56;4967949;28;20108;-75
2023/10/27 02:07:37;;;;;;;5.38;2.97;;;;;;;10.98;56.24;98825.72;4928753;28;1161193;-75
2023/10/27 02:10:06;;;;;;;4.45;2.60;;;;;;;10.99;55.99;98821.94;4986054;28;20096;-75
2023/10/27 02:12:34;;;;;;;7.03;3.17;;;;;;;10.97;55.82;98813.94;4968674;28;20054;-74
2023/10/27 02:15:05;;;;;;;4.43;2.80;;;;;;;10.98;56.17;98806.56;4971741;28;20096;-73
2023/10/27 02:17:33;;;;;;;4.43;2.63;;;;;;;10.95;56.23;98802.31;4970850;28;20068;-75
2023/10/27 02:20:02;;;;;;;7.30;3.30;;;;;;;10.95;55.68;98806.94;4987243;28;20687;-74
2023/10/27 02:22:29;;;;;;;6.28;3.33;;;;;;;10.94;55.67;98800.63;4987792;28;20156;-73
2023/10/27 02:24:58;;;;;;;5.25;3.00;;;;;;;10.93;56.22;98787.97;4972866;28;20054;-73
2023/10/27 02:27:27;;;;;;;4.32;2.88;;;;;;;10.93;55.92;98787.13;4987138;28;20054;-74
2023/10/27 02:29:55;;;;;;;6.82;2.80;;;;;;;10.92;56.10;98783.53;4972894;28;20054;-74
2023/10/27 02:32:24;;;;;;;4.78;2.72;;;;;;;10.92;56.14;98783.53;4989476;28;20413;-74
2023/10/27 02:34:52;;;;;;;5.70;2.70;;;;;;;10.89;56.08;98783.06;4973917;28;20208;-74
2023/10/27 02:37:20;;;;;;;6.05;3.58;;;;;;;10.89;55.80;98781.19;4970432;28;20058;-75
2023/10/27 02:39:49;;;;;;;5.60;2.80;;;;;;;10.88;56.26;98774.00;4989729;28;20987;-74
2023/10/27 02:42:16;;;;;;;7.30;2.95;;;;;;;10.88;56.07;98781.38;4987467;28;20116;-75
2023/10/27 02:44:44;;;;;;;7.20;2.90;;;;;;;10.86;56.24;98777.97;4972003;28;20050;-74
2023/10/27 02:47:13;;;;;;;5.75;2.90;;;;;;;10.85;55.97;98768.03;4986485;28;20481;-76
2023/10/27 02:49:42;;;;;;;6.15;2.92;;;;;;;10.86;56.28;98770.59;4986027;28;20089;-75
2023/10/27 02:52:11;;;;;;;5.63;2.92;;;;;;;10.85;55.69;98768.03;4980863;28;20050;-76
2023/10/27 02:54:39;;;;;;;6.40;2.80;;;;;;;10.85;55.82;98768.03;4985854;28;20050;-74
2023/10/27 02:57:07;;;;;;;5.70;2.50;;;;;;;10.83;55.90;98762.75;4983462;28;20104;-75
2023/10/27 02:59:35;;;;;;;4.85;2.72;;;;;;;10.84;55.95;98758.13;4984550;28;20589;-75
2023/10/27 03:02:05;;;;;;;6.15;2.70;;;;;;;10.82;56.06;98760.19;4982771;28;21158;-74
2023/10/27 03:04:33;;;;;;;4.93;2.70;;;;;;;10.82;56.37;98749.25;4984676;28;20052;-75
2023/10/27 03:07:03;;;;;;;4.70;2.72;;;;;;;10.82;56.31;98760.19;4985834;28;20061;-75
2023/10/27 03:09:31;;;;;;;5.47;2.55;;;;;;;10.80;55.88;98754.94;4971112;28;20060;-75
2023/10/27 03:11:59;;;;;;;6.90;3.17;;;;;;;10.79;55.82;98749.66;5002764;28;20054;-74
2023/10/27 03:14:27;;;;;;;6.50;3.00;;;;;;;10.79;55.95;98752.38;4990597;28;20195;-76
2023/10/27 03:16:54;;;;;;;5.05;2.60;;;;;;;10.78;56.15;98751.53;5006183;28;20052;-75
2023/10/27 03:19:23;;;;;;;5.60;2.70;;;;;;;10.78;55.97;98747.94;4990652;28;20058;-73
2023/10/27 03:21:51;;;;;;;5.90;2.40;;;;;;;10.77;56.14;98743.50;4989367;28;20390;-73
2023/10/27 03:24:20;;;;;;;4.55;2.80;;;;;;;10.79;56.27;98746.91;4973118;28;20955;-75
2023/10/27 03:26:48;;;;;;;5.55;2.65;;;;;;;10.77;56.14;98744.34;4970249;28;20141;-74
2023/10/27 03:29:16;;;;;;;6.07;2.95;;;;;;;10.78;56.24;98750.69;4972950;28;20090;-77
2023/10/27 03:31:44;;;;;;;4.25;2.30;;;;;;;10.77;56.46;98748.97;4987832;28;20042;-75
2023/10/27 03:34:12;;;;;;;5.50;2.67;;;;;;;10.77;56.01;98751.72;4990525;28;20046;-76
2023/10/27 03:36:41;;;;;;;6.50;2.72;;;;;;;10.77;55.98;98748.97;4989416;28;20056;-76
2023/10/27 03:39:10;;;;;;;5.22;2.20;;;;;;;10.76;55.88;98755.47;4973946;28;20163;-77
2023/10/27 03:41:39;;;;;;;5.97;2.70;;;;;;;10.76;56.59;98750.84;5002127;28;20077;-76
2023/10/27 03:44:07;;;;;;;5.20;2.60;;;;;;;10.75;56.54;98740.09;4973667;28;20170;-76
2023/10/27 03:46:35;;;;;;;6.10;2.72;;;;;;;10.75;55.86;98742.84;4972647;28;20136;-77
2023/10/27 03:49:03;;;;;;;6.70;2.30;;;;;;;10.73;56.34;98740.28;4987630;28;20077;-76
2023/10/27 03:51:32;;;;;;;5.68;2.70;;;;;;;10.73;56.01;98740.28;4987353;28;20670;-77
2023/10/27 03:54:00;;;;;;;6.25;2.40;;;;;;;10.73;56.00;98736.72;4971289;28;20058;-77
2023/10/27 03:56:29;;;;;;;6.43;2.63;;;;;;;10.72;56.38;98733.13;5002693;28;20522;-75
2023/10/27 03:58:58;;;;;;;7.70;2.55;;;;;;;10.74;56.11;98732.94;4972812;28;20074;-76
2023/10/27 04:01:27;;;;;;;5.05;2.35;;;;;;;10.71;56.09;98736.91;4969924;28;20563;-75
2023/10/27 04:03:55;;;;;;;4.80;2.53;;;;;;;10.72;56.12;98738.59;4988990;28;20074;-77
2023/10/27 04:06:23;;;;;;;5.60;2.60;;;;;;;10.72;56.56;98737.75;4985380;28;20168;-75
2023/10/27 04:08:51;;;;;;;4.38;2.22;;;;;;;10.72;56.58;98732.28;4990456;28;20049;-76
2023/10/27 04:11:19;;;;;;;6.47;2.30;;;;;;;10.70;56.03;98731.63;4987534;28;20058;-77
2023/10/27 04:13:48;;;;;;;7.07;2.08;;;;;;;10.70;56.44;98723.41;4990786;28;20042;-76
2023/10/27 04:16:18;;;;;;;5.55;2.40;;;;;;;10.70;56.06;98717.94;4970463;28;20229;-76
2023/10/27 04:18:46;;;;;;;4.95;2.45;;;;;;;10.67;56.24;98719.16;4969553;28;20068;-76
2023/10/27 04:21:14;;;;;;;4.60;2.13;;;;;;;10.66;56.03;98717.44;4985760;28;20138;-74
2023/10/27 04:23:42;;;;;;;6.50;2.65;;;;;;;10.66;55.96;98722.91;4988191;28;20141;-75
2023/10/27 04:26:11;;;;;;;4.28;2.10;;;;;;;10.65;56.09;98721.22;4998194;28;20220;-75
2023/10/27 04:28:38;;;;;;;6.85;2.67;;;;;;;10.66;56.16;98716.59;5002088;28;20816;-76
2023/10/27 04:31:06;;;;;;;7.63;2.92;;;;;;;10.64;56.53;98716.81;4986571;28;20617;-76
2023/10/27 04:33:37;;;;;;;5.43;2.50;;;;;;;10.66;56.65;98711.13;4986026;28;20053;-77
2023/10/27 04:36:06;;;;;;;5.43;2.50;;;;;;;10.64;56.56;98710.47;4967872;28;20053;-76
2023/10/27 04:38:33;;;;;;;4.10;2.47;;;;;;;10.63;56.49;98714.25;4968377;28;21359;-76
2023/10/27 04:41:01;;;;;;;5.38;2.70;;;;;;;10.63;56.60;98722.47;4968770;28;20060;-76
2023/10/27 04:43:31;;;;;;;6.15;2.70;;;;;;;10.62;56.35;98712.53;4987166;28;20840;-77
2023/10/27 04:45:58;;;;;;;5.60;2.67;;;;;;;10.62;56.53;98718.03;4987297;28;20112;-74
2023/10/27 04:48:26;;;;;;;5.50;2.42;;;;;;;10.60;56.14;98716.31;4967804;28;20042;-76
2023/10/27 04:50:58;;;;;;;5.22;2.53;;;;;;;10.63;56.61;98719.72;4996902;28;20407;-76
2023/10/27 04:53:26;;;;;;;4.50;2.58;;;;;;;10.59;56.28;98711.03;4989062;28;20493;-76
2023/10/27 04:55:54;;;;;;;5.78;2.40;;;;;;;10.58;56.28;98712.91;5001159;28;20052;-76
2023/10/27 04:58:22;;;;;;;4.07;2.30;;;;;;;10.59;56.60;98711.03;4967355;28;20077;-75
2023/10/27 05:00:50;;;;;;;6.50;2.42;;;;;;;10.58;56.17;98715.66;4969354;28;20100;-76
2023/10/27 05:03:18;;;;;;;7.47;2.55;;;;;;;10.57;56.23;98711.22;4966553;28;20588;-75
2023/10/27 05:05:46;;;;;;;4.97;2.40;;;;;;;10.57;56.05;98710.34;4986390;28;20575;-75
2023/10/27 05:08:15;;;;;;;5.97;2.35;;;;;;;10.57;56.12;98715.81;4985725;28;20567;-74
2023/10/27 05:10:43;;;;;;;6.93;2.38;;;;;;;10.57;56.58;98715.81;5002607;28;20081;-76
2023/10/27 05:13:11;;;;;;;4.88;2.40;;;;;;;10.57;56.13;98721.28;4969371;28;20073;-76
2023/10/27 05:15:39;;;;;;;4.60;2.13;;;;;;;10.57;56.52;98718.56;4967968;28;20049;-76
2023/10/27 05:18:07;;;;;;;5.32;2.22;;;;;;;10.57;56.43;98721.28;4986256;28;20060;-76
2023/10/27 05:20:38;;;;;;;6.80;2.45;;;;;;;10.60;56.58;98718.19;4972292;28;20053;-77
2023/10/27 05:23:06;;;;;;;5.65;2.40;;;;;;;10.58;56.58;98718.38;4972902;28;21354;-75
2023/10/27 05:25:36;;;;;;;4.95;2.42;;;;;;;10.58;56.44;98715.66;4989910;28;20542;-75
2023/10/27 05:28:04;;;;;;;6.78;2.65;;;;;;;10.58;56.10;98721.13;4987987;28;20538;-76
2023/10/27 05:30:34;;;;;;;7.65;2.20;;;;;;;10.60;56.73;98720.94;4989780;28;20050;-76
2023/10/27 05:33:02;;;;;;;5.03;2.30;;;;;;;10.58;56.42;98723.00;4999846;28;20058;-76
2023/10/27 05:35:30;;;;;;;5.00;2.25;;;;;;;10.57;56.61;98721.28;4984352;28;20062;-77
2023/10/27 05:37:58;;;;;;;5.47;2.35;;;;;;;10.57;56.52;98719.41;4980842;28;21236;-77
2023/10/27 05:40:31;;;;;;;5.82;2.45;;;;;;;10.56;56.14;98722.38;4984350;28;20046;-77
2023/10/27 05:43:01;;;;;;;5.03;2.35;;;;;;;10.56;56.10;98712.28;4985514;28;21000;-75
2023/10/27 05:45:29;;;;;;;7.10;2.40;;;;;;;10.54;56.12;98722.53;4979501;28;20060;-74
2023/10/27 05:47:57;;;;;;;5.38;2.28;;;;;;;10.54;56.67;98717.06;4985323;28;20409;-75
2023/10/27 05:50:25;;;;;;;4.90;2.10;;;;;;;10.53;56.40;98712.63;4982320;28;20061;-77
2023/10/27 05:52:53;;;;;;;7.90;2.60;;;;;;;10.54;56.20;98722.53;4984054;28;20049;-76
2023/10/27 05:55:21;;;;;;;8.45;2.42;;;;;;;10.53;56.82;98719.94;4974225;28;20144;-77
2023/10/27 05:57:49;;;;;;;5.55;2.70;;;;;;;10.52;56.60;98715.50;4974450;28;20054;-77
2023/10/27 06:00:19;;;;;;;5.30;2.40;;;;;;;10.52;56.86;98718.25;4991452;28;20100;-76
2023/10/27 06:02:48;;;;;;;5.63;2.60;;;;;;;10.49;56.49;98711.25;4976451;28;20054;-76
2023/10/27 06:05:16;;;;;;;6.40;2.90;;;;;;;10.49;56.51;98719.47;4975231;28;20074;-77
2023/10/27 06:07:44;;;;;;;6.70;3.30;;;;;;;10.48;56.95;98716.94;4992530;28;20066;-76
2023/10/27 06:10:12;;;;;;;6.47;2.75;;;;;;;10.48;56.98;98716.94;4972136;28;20516;-76
2023/10/27 06:12:41;;;;;;;6.88;2.80;;;;;;;10.48;57.06;98716.94;4995069;28;20045;-76
2023/10/27 06:15:09;;;;;;;6.30;3.00;;;;;;;10.48;56.47;98720.50;4992909;28;20536;-77
2023/10/27 06:17:39;;;;;;;5.65;2.80;;;;;;;10.49;57.09;98718.63;4994256;28;20052;-77
2023/10/27 06:20:08;;;;;;;5.25;2.35;;;;;;;10.48;56.81;98716.94;5007691;28;20055;-77
2023/10/27 06:22:45;;;;;;;5.57;2.50;;;;;;;10.46;56.80;98722.59;4978197;28;20057;-78
2023/10/27 06:25:13;;;;;;;5.90;3.17;;;;;;;10.48;57.24;98719.69;4976818;28;20053;-76
2023/10/27 06:27:42;;;;;;;5.97;2.65;;;;;;;10.47;56.88;98718.81;5005413;28;20083;-77
2023/10/27 06:30:10;;;;;;;5.07;2.88;;;;;;;10.48;57.25;98728.69;4992104;28;20169;-78
2023/10/27 06:32:40;;;;;;;5.45;2.80;;;;;;;10.48;57.23;98715.03;4994574;28;20038;-78
2023/10/27 06:35:08;;;;;;;5.00;2.47;;;;;;;10.48;56.93;98716.94;4995741;28;20429;-76
2023/10/27 06:37:36;;;;;;;6.25;2.75;;;;;;;10.48;57.34;98714.22;5005445;28;20441;-77
2023/10/27 06:40:05;;;;;;;5.40;2.95;;;;;;;10.47;56.82;98716.09;4989882;28;20050;-77
2023/10/27 06:42:34;;;;;;;8.18;3.42;;;;;;;10.45;57.31;98715.41;4990881;28;20069;-76
2023/10/27 06:45:03;;;;;;;5.63;2.80;;;;;;;10.45;57.30;98718.16;4990504;28;20052;-76
2023/10/27 06:47:31;;;;;;;6.55;2.67;;;;;;;10.45;57.49;98712.69;5004180;28;20054;-76
2023/10/27 06:50:03;;;;;;;7.15;3.17;;;;;;;10.46;57.43;98713.53;5003392;28;20050;-77
2023/10/27 06:52:31;;;;;;;6.82;2.88;;;;;;;10.44;57.28;98719.19;4971902;28;20060;-77
2023/10/27 06:55:00;;;;;;;5.95;2.92;;;;;;;10.43;57.46;98713.88;4987605;28;20053;-77
2023/10/27 06:57:28;;;;;;;5.78;2.85;;;;;;;10.44;57.25;98715.59;4988664;28;20145;-75
2023/10/27 06:59:57;;;;;;;6.97;3.17;;;;;;;10.44;57.30;98712.88;4972393;28;20046;-77
2023/10/27 07:02:24;;;;;;;5.82;3.30;;;;;;;10.43;57.15;98716.63;4990539;28;20559;-76
2023/10/27 07:04:53;;;;;;;6.93;2.97;;;;;;;10.43;57.57;98724.84;4988691;28;20145;-75
2023/10/27 07:07:22;;;;;;;6.32;2.92;;;;;;;10.43;57.50;98722.09;4989759;28;20050;-77
2023/10/27 07:09:56;;;;;;;6.45;3.20;;;;;;;10.40;57.69;98717.84;4971033;28;20579;-77
2023/10/27 07:12:24;;;;;;;6.00;3.08;;;;;;;10.40;57.70;98717.03;4973028;28;20145;-77
2023/10/27 07:14:52;;;;;;;5.85;3.00;;;;;;;10.40;57.85;98726.03;4971698;28;20072;-76
2023/10/27 07:17:20;;;;;;;6.07;3.00;;;;;;;10.40;57.43;98717.03;4972221;28;20050;-77
2023/10/27 07:19:48;;;;;;;5.00;2.83;;;;;;;10.41;57.49;98718.69;4986904;28;20050;-76
2023/10/27 07:22:19;;;;;;;5.65;2.97;;;;;;;10.41;57.83;98721.41;4970365;28;20046;-77
2023/10/27 07:24:48;;;;;;;5.30;2.88;;;;;;;10.42;57.53;98725.84;4991761;28;20053;-76
2023/10/27 07:27:17;;;;;;;6.88;3.05;;;;;;;10.41;57.88;98725.00;4972863;28;20081;-77
2023/10/27 07:29:46;;;;;;;5.10;2.60;;;;;;;10.42;58.07;98726.72;5004210;28;20058;-77
2023/10/27 07:32:14;;;;;;;6.68;2.65;;;;;;;10.43;58.08;98728.41;4973408;28;20061;-77
2023/10/27 07:34:42;;;;;;;6.35;2.80;;;;;;;10.43;57.78;98722.94;4973267;28;20306;-77
2023/10/27 07:37:11;;;;;;;6.10;2.67;;;;;;;10.45;58.12;98720.88;4972475;28;20525;-77
2023/10/27 07:39:39;;;;;;;5.65;2.70;;;;;;;10.47;58.11;98726.19;4989105;28;20449;-77
2023/10/27 07:42:09;;;;;;;4.22;2.38;;;;;;;10.48;58.32;98727.88;4990674;28;20057;-77
2023/10/27 07:44:37;;;;;;;3.53;1.95;;;;;;;10.48;57.72;98728.69;4992094;28;20049;-77
2023/10/27 07:47:05;;;;;;;6.10;2.63;;;;;;;10.49;58.17;98729.56;4989974;28;20074;-77
2023/10/27 07:49:33;;;;;;;4.35;2.08;;;;;;;10.49;57.90;98726.81;4989420;28;20078;-77
2023/10/27 07:52:03;;;;;;;4.47;2.25;;;;;;;10.49;57.57;98735.88;4976218;28;20057;-77
2023/10/27 07:54:32;;;;;;;6.03;2.22;;;;;;;10.51;58.22;98730.22;4992378;28;20140;-77
2023/10/27 07:57:00;;;;;;;5.18;2.15;;;;;;;10.51;57.85;98731.06;4993447;28;20421;-77
2023/10/27 07:59:29;;;;;;;3.85;2.00;;;;;;;10.53;58.54;98734.50;4993396;28;22223;-77
2023/10/27 08:01:58;;;;;;;4.00;1.90;;;;;;;10.54;58.43;98736.22;5006743;28;20046;-77
2023/10/27 08:04:32;;;;;;;3.92;1.95;;;;;;;10.54;58.24;98741.69;4991705;28;20056;-76
2023/10/27 08:07:00;;;;;;;4.30;2.10;;;;;;;10.57;58.23;98745.91;4990504;28;20050;-77
2023/10/27 08:09:29;;;;;;;4.47;2.08;;;;;;;10.58;58.22;98744.88;5124060;23;20081;-78
2023/10/27 08:11:57;;;;;;;4.40;2.20;;;;;;;10.58;58.18;98745.72;5036396;28;20089;-79
2023/10/27 08:14:25;;;;;;;4.43;2.30;;;;;;;10.59;57.96;98741.97;5034624;28;20051;-77
2023/10/27 08:16:55;;;;;;;3.63;2.10;;;;;;;10.61;58.16;98739.06;5032221;28;20136;-77
2023/10/27 08:19:23;;;;;;;3.50;1.95;;;;;;;10.59;58.57;98744.69;5027571;28;20077;-77
2023/10/27 08:21:51;;;;;;;3.60;1.90;;;;;;;10.62;58.07;98753.59;5022418;28;20065;-77
2023/10/27 08:24:19;;;;;;;2.78;1.58;;;;;;;10.62;58.14;98754.44;5025482;28;20046;-77
2023/10/27 08:26:47;;;;;;;2.47;1.60;;;;;;;10.63;58.13;98755.28;5019663;28;20084;-77
2023/10/27 08:29:15;;;;;;;3.35;1.40;;;;;;;10.64;58.14;98760.56;5023401;28;20070;-77
2023/10/27 08:31:43;;;;;;;2.92;1.52;;;;;;;10.66;58.66;98768.56;5022025;28;20440;-77
2023/10/27 08:34:12;;;;;;;3.33;1.50;;;;;;;10.67;58.80;98762.91;5024418;28;20061;-77
2023/10/27 08:36:40;;;;;;;3.55;1.52;;;;;;;10.67;58.53;98767.53;5022343;28;20524;-77
2023/10/27 08:39:09;;;;;;;3.10;1.70;;;;;;;10.67;58.39;98765.66;5018844;28;20061;-76
2023/10/27 08:41:37;;;;;;;3.20;1.80;;;;;;;10.69;58.25;98771.78;5018429;28;20108;-77
2023/10/27 08:44:08;;;;;;;3.00;1.67;;;;;;;10.70;58.70;98770.75;5016646;28;20120;-77
2023/10/27 08:46:53;;;;;;;3.80;1.70;;;;;;;10.70;58.82;98775.38;5023638;28;20424;-76
2023/10/27 08:49:23;;;;;;;4.32;2.03;;;;;;;10.74;58.38;98772.06;5023021;28;20524;-75
2023/10/27 08:51:51;;;;;;;3.70;1.70;;;;;;;10.75;58.31;98783.88;5016428;28;20050;-76
2023/10/27 08:54:20;;;;;;;4.32;1.80;;;;;;;10.76;58.95;98778.22;5016783;28;20528;-76
2023/10/27 08:56:48;;;;;;;3.65;2.00;;;;;;;10.77;58.80;98774.44;5012671;28;20133;-75
2023/10/27 08:59:18;;;;;;;2.90;1.60;;;;;;;10.79;58.43;98775.13;5005628;28;20060;-74
2023/10/27 09:01:46;;;;;;;2.95;1.70;;;;;;;10.81;58.68;98783.97;5005206;28;20115;-74
2023/10/27 09:04:15;;;;;;;2.65;1.48;;;;;;;10.84;58.77;98791.81;5006324;28;20093;-74
2023/10/27 09:06:45;;;;;;;3.60;1.92;;;;;;;10.86;58.34;98792.50;5002609;28;20729;-75
2023/10/27 09:09:14;;;;;;;3.75;2.10;;;;;;;10.86;58.81;98788.91;4993739;28;20054;-75
2023/10/27 09:11:47;;;;;;;2.95;1.77;;;;;;;10.87;58.60;98794.19;5009819;28;20157;-75
2023/10/27 09:14:20;;;;;;;3.42;1.90;;;;;;;10.88;58.34;98790.44;5003181;28;20057;-76
2023/10/27 09:16:48;;;;;;;;;;;;;;;10.61;59.25;98785.56;4990702;28;20045;-76
2023/10/27 09:19:20;;;;;;;2.92;1.63;;;;;;;10.83;58.50;98790.13;5001933;28;19929;-76
2023/10/27 09:21:49;;;;;;;3.22;2.00;;;;;;;10.84;58.65;98789.09;4988609;28;20049;-75
2023/10/27 09:24:24;;;;;;;3.28;2.17;;;;;;;10.87;58.63;98790.59;4990085;28;20041;-74
2023/10/27 09:26:53;;;;;;;3.92;1.80;;;;;;;10.83;58.61;98798.31;4993209;28;20049;-74
2023/10/27 09:29:22;;;;;;;4.40;2.28;;;;;;;10.83;58.18;98795.59;5011975;28;20304;-74
2023/10/27 09:31:51;;;;;;;3.35;2.15;;;;;;;10.83;58.50;98797.47;5011840;28;20041;-75
2023/10/27 09:34:23;;;;;;;4.03;2.28;;;;;;;10.83;58.92;98790.13;5009106;28;20064;-74
2023/10/27 09:36:55;;;;;;;4.50;2.47;;;;;;;10.83;59.18;98797.47;5009804;28;20055;-75
2023/10/27 09:39:23;;;;;;;3.60;2.40;;;;;;;10.83;58.65;98792.84;5010457;28;20060;-75
2023/10/27 09:41:58;;;;;;;3.60;2.30;;;;;;;10.88;59.18;98789.56;5013005;28;20089;-75
2023/10/27 09:44:39;;;;;;;4.25;2.20;;;;;;;10.88;59.12;98795.06;5010327;28;20056;-74
2023/10/27 09:47:12;;;;;;;3.70;2.28;;;;;;;10.91;59.38;98805.59;5007832;28;20084;-75
2023/10/27 09:49:43;;;;;;;4.15;2.13;;;;;;;10.91;59.13;98805.59;5007775;28;20052;-74
2023/10/27 09:52:20;;;;;;;4.85;2.47;;;;;;;10.97;59.71;98807.63;5007495;28;20057;-75
2023/10/27 09:54:51;;;;;;;4.40;2.25;;;;;;;10.97;59.05;98807.63;5007479;28;20536;-74
2023/10/27 09:57:30;;;;;;;4.43;2.45;;;;;;;11.00;59.42;98807.22;5005880;28;20056;-74
2023/10/27 10:00:00;;;;;;;4.93;2.40;;;;;;;11.05;59.04;98812.16;5005398;28;20141;-74
2023/10/27 10:02:39;;;;;;;3.65;2.20;;;;;;;11.06;58.99;98811.13;4989610;28;20075;-74
2023/10/27 10:05:08;;;;;;;3.80;2.50;;;;;;;11.10;59.33;98815.16;5008056;28;20058;-74
2023/10/27 10:07:41;;;;;;;3.55;2.22;;;;;;;11.14;59.59;98819.25;5003915;28;20141;-74
2023/10/27 10:10:26;;;;;;;4.28;1.90;;;;;;;11.16;59.44;98825.34;5004753;28;20050;-74
2023/10/27 10:12:59;;;;;;;4.07;2.38;;;;;;;11.17;59.03;98833.38;5005951;28;20054;-73
2023/10/27 10:15:28;;;;;;;3.17;2.05;;;;;;;11.20;59.04;98829.44;5004838;28;20337;-73
2023/10/27 10:17:57;;;;;;;3.55;2.15;;;;;;;11.22;59.41;98841.91;5007439;28;20489;-73
2023/10/27 10:20:58;;;;;;;4.03;2.25;;;;;;;11.26;59.72;98837.75;5005188;28;20085;-73
2023/10/27 10:24:00;;;;;;;3.50;2.00;;;;;;;11.27;59.69;98836.72;5007457;28;20069;-73
2023/10/27 10:27:01;;;;;;;3.63;2.20;;;;;;;11.28;59.13;98829.34;5015004;28;20049;-73
2023/10/27 10:29:32;;;;;;;3.72;2.08;;;;;;;11.29;59.47;98842.84;5018622;28;20057;-73
2023/10/27 10:32:36;;;;;;;3.38;2.08;;;;;;;11.32;59.11;98841.63;5021094;28;20044;-73
2023/10/27 10:35:19;;;;;;;3.58;1.65;;;;;;;11.34;59.80;98840.41;5006247;28;20206;-63
2023/10/27 10:37:47;;;;;;;;;;;;;;;11.09;60.18;98838.97;5027705;28;20046;-75
2023/10/27 10:40:24;;;;;;;4.15;1.70;;;;;;;11.36;59.59;98842.94;5026518;28;20283;-75
2023/10/27 10:43:18;;;;;;;3.53;1.77;;;;;;;11.42;59.51;98844.06;5013215;28;20128;-76
2023/10/27 10:45:50;;;;;;;3.45;1.92;;;;;;;11.44;59.50;98845.59;5006105;28;20037;-75
2023/10/27 10:48:19;;;;;;;3.30;2.03;;;;;;;11.45;59.11;98851.94;5029181;28;20110;-75
2023/10/27 10:50:48;;;;;;;5.28;2.17;;;;;;;11.49;59.42;98855.97;5026910;28;20408;-74
2023/10/27 10:53:17;;;;;;;4.20;1.95;;;;;;;11.52;58.90;98850.97;5016493;28;20115;-75
2023/10/27 10:55:46;;;;;;;3.92;2.60;;;;;;;11.54;59.05;98845.31;5027476;28;20046;-75
2023/10/27 10:58:24;;;;;;;4.40;2.30;;;;;;;11.58;59.30;98847.47;5009882;28;20038;-74
2023/10/27 11:00:56;;;;;;;4.05;2.50;;;;;;;11.60;58.58;98850.03;5015190;28;20330;-74
2023/10/27 11:03:26;;;;;;;3.88;2.28;;;;;;;11.58;59.05;98852.09;5015313;28;20053;-75
2023/10/27 11:05:59;;;;;;;4.35;2.42;;;;;;;11.63;59.02;98846.94;5021374;28;20091;-75
2023/10/27 11:08:29;;;;;;;5.00;2.25;;;;;;;11.61;58.94;98847.13;5031125;28;20044;-75
2023/10/27 11:11:04;;;;;;;4.18;2.45;;;;;;;11.61;58.34;98847.13;5013373;28;20548;-76
2023/10/27 11:13:34;;;;;;;4.07;2.67;;;;;;;11.62;58.66;98842.50;5011140;28;20413;-76
2023/10/27 11:16:13;;;;;;;4.18;2.55;;;;;;;11.64;58.90;98852.22;5026195;28;20401;-75
2023/10/27 11:18:42;;;;;;;5.70;2.70;;;;;;;11.61;58.79;98851.75;5009490;28;20096;-76
2023/10/27 11:21:15;;;;;;;4.90;2.60;;;;;;;11.61;58.84;98849.88;5017250;28;20048;-76
2023/10/27 11:23:43;;;;;;;5.57;2.92;;;;;;;11.59;58.85;98851.06;5029549;28;20041;-76
2023/10/27 11:26:11;;;;;;;4.90;2.85;;;;;;;11.59;59.02;98854.66;5029888;28;20096;-75
2023/10/27 11:28:42;;;;;;;5.07;3.33;;;;;;;11.62;58.82;98858.94;5014452;28;20077;-76
2023/10/27 11:31:13;;;;;;;5.68;3.22;;;;;;;11.61;59.15;98852.63;5013182;28;20044;-76
2023/10/27 11:33:58;;;;;;;5.30;3.25;;;;;;;11.61;59.58;98844.41;5012976;28;20045;-76
2023/10/27 11:36:26;;;;;;;4.35;3.00;;;;;;;11.59;59.19;98843.69;5012709;28;20111;-76
2023/10/27 11:38:54;;;;;;;4.85;3.15;;;;;;;11.62;58.97;98845.25;5025194;28;20041;-76
2023/10/27 11:41:23;;;;;;;5.57;3.50;;;;;;;11.63;59.25;98841.47;5030748;28;20116;-74
2023/10/27 11:43:51;;;;;;;5.65;3.75;;;;;;;11.63;59.29;98839.59;5031994;28;20128;-75
2023/10/27 11:46:21;;;;;;;5.82;3.65;;;;;;;11.66;58.97;98844.66;5031249;28;20119;-75